createdAt,value
2022-11-16T00:00:32.438Z,5.43
2022-11-16T00:03:05.504Z,2.28
2022-11-16T00:05:33.980Z,2.50
2022-11-16T00:08:02.245Z,5.25
2022-11-16T00:10:30.582Z,3.55
2022-11-16T00:12:58.933Z,2.45
2022-11-16T00:15:27.833Z,4.60
2022-11-16T00:17:57.409Z,7.45
2022-11-16T00:20:27.034Z,5.07
2022-11-16T00:22:55.335Z,4.00
2022-11-16T00:25:23.741Z,7.18
2022-11-16T00:27:51.949Z,3.45
2022-11-16T00:30:20.414Z,7.90
2022-11-16T00:32:48.741Z,4.88
2022-11-16T00:35:17.300Z,7.53
2022-11-16T00:37:47.065Z,5.40
2022-11-16T00:40:15.540Z,9.07
2022-11-16T00:42:44.145Z,6.13
2022-11-16T00:45:12.637Z,11.02
2022-11-16T00:47:42.158Z,7.90
2022-11-16T00:50:10.863Z,10.45
2022-11-16T00:52:39.314Z,11.43
2022-11-16T00:55:09.650Z,9.57
2022-11-16T00:57:37.881Z,10.23
2022-11-16T01:00:07.167Z,10.30
2022-11-16T01:02:35.456Z,13.68
2022-11-16T01:05:03.713Z,10.93
2022-11-16T01:07:32.180Z,15.07
2022-11-16T01:10:00.420Z,9.40
2022-11-16T01:12:29.110Z,9.60
2022-11-16T01:14:57.417Z,11.75
2022-11-16T01:17:25.917Z,10.98
2022-11-16T01:19:54.325Z,9.13
2022-11-16T01:22:22.669Z,11.00
2022-11-16T01:24:50.920Z,8.98
2022-11-16T01:27:19.252Z,7.10
2022-11-16T01:29:48.977Z,7.57
2022-11-16T01:32:17.231Z,6.18
2022-11-16T01:34:45.570Z,8.82
2022-11-16T01:37:13.960Z,5.95
2022-11-16T01:39:42.380Z,14.00
2022-11-16T01:42:18.046Z,9.25
2022-11-16T01:45:34.341Z,5.07
2022-11-16T01:48:04.329Z,9.50
2022-11-16T01:50:32.747Z,4.65
2022-11-16T01:53:05.427Z,3.72
2022-11-16T01:55:35.758Z,3.40
2022-11-16T01:58:04.605Z,7.88
2022-11-16T02:00:32.916Z,5.53
2022-11-16T02:03:01.338Z,4.10
2022-11-16T02:05:40.371Z,8.05
2022-11-16T02:08:42.631Z,8.52
2022-11-16T02:11:34.897Z,4.55
2022-11-16T02:15:17.914Z,2.33
2022-11-16T02:18:01.074Z,3.80
2022-11-16T02:21:02.500Z,7.10
2022-11-16T02:24:07.819Z,8.82
2022-11-16T02:27:11.432Z,4.70
2022-11-16T02:29:44.336Z,6.95
2022-11-16T02:32:18.564Z,4.10
2022-11-16T02:34:52.741Z,6.63
2022-11-16T02:37:24.303Z,7.88
2022-11-16T02:39:57.634Z,5.93
2022-11-16T02:42:32.432Z,4.70
2022-11-16T02:45:03.452Z,4.20
2022-11-16T02:47:34.714Z,6.85
2022-11-16T02:50:07.789Z,9.07
2022-11-16T02:52:38.320Z,6.95
2022-11-16T02:55:08.221Z,12.65
2022-11-16T02:57:43.595Z,6.53
2022-11-16T03:00:19.435Z,9.65
2022-11-16T03:02:56.423Z,3.35
2022-11-16T03:05:33.041Z,4.82
2022-11-16T03:08:12.998Z,9.05
2022-11-16T03:11:01.843Z,4.13
2022-11-16T03:13:34.341Z,15.57
2022-11-16T03:16:09.087Z,7.97
2022-11-16T03:18:39.908Z,5.07
2022-11-16T03:21:15.153Z,7.72
2022-11-16T03:23:44.671Z,7.15
2022-11-16T03:26:17.757Z,4.13
2022-11-16T03:28:54.522Z,4.20
2022-11-16T03:31:30.256Z,4.68
2022-11-16T03:34:02.362Z,5.10
2022-11-16T03:36:34.838Z,4.53
2022-11-16T03:39:06.680Z,3.85
2022-11-16T03:41:37.829Z,5.32
2022-11-16T03:44:07.433Z,9.80
2022-11-16T03:46:37.076Z,5.63
2022-11-16T03:49:05.492Z,7.63
2022-11-16T03:51:34.004Z,7.07
2022-11-16T03:54:02.337Z,8.57
2022-11-16T03:56:30.758Z,5.77
2022-11-16T03:59:00.168Z,6.70
2022-11-16T04:01:28.614Z,8.55
2022-11-16T04:03:58.247Z,5.68
2022-11-16T04:06:44.203Z,7.45
2022-11-16T04:09:30.753Z,11.10
2022-11-16T04:12:16.612Z,3.73
2022-11-16T04:15:02.527Z,7.60
2022-11-16T04:17:48.079Z,4.47
2022-11-16T04:20:35.764Z,6.78
2022-11-16T04:23:24.469Z,7.50
2022-11-16T04:25:53.328Z,6.07
2022-11-16T04:28:24.426Z,8.17
2022-11-16T04:31:12.983Z,7.77
2022-11-16T04:34:01.365Z,8.83
2022-11-16T04:36:48.838Z,8.73
2022-11-16T04:39:17.228Z,6.93
2022-11-16T04:42:06.515Z,7.80
2022-11-16T04:44:54.516Z,4.50
2022-11-16T04:47:22.953Z,10.07
2022-11-16T04:49:51.205Z,8.40
2022-11-16T04:52:20.978Z,8.30
2022-11-16T04:54:49.295Z,9.13
2022-11-16T04:57:17.683Z,10.63
2022-11-16T04:59:46.130Z,13.97
2022-11-16T05:02:15.293Z,6.83
2022-11-16T05:04:45.020Z,5.23
2022-11-16T05:07:15.288Z,11.82
2022-11-16T05:09:46.706Z,6.80
2022-11-16T05:12:17.071Z,9.87
2022-11-16T05:14:47.175Z,7.03
2022-11-16T05:17:15.970Z,8.17
2022-11-16T05:20:02.109Z,11.77
2022-11-16T05:22:30.965Z,9.60
2022-11-16T05:25:00.964Z,11.30
2022-11-16T05:27:30.451Z,8.73
2022-11-16T05:29:58.873Z,17.17
2022-11-16T05:32:28.373Z,9.23
2022-11-16T05:34:57.730Z,10.57
2022-11-16T05:37:26.881Z,13.47
2022-11-16T05:39:57.081Z,14.13
2022-11-16T05:42:26.787Z,10.97
2022-11-16T05:44:55.043Z,11.10
2022-11-16T05:47:23.464Z,16.23
2022-11-16T05:49:51.798Z,18.13
2022-11-16T05:52:20.082Z,11.57
2022-11-16T05:54:48.355Z,13.13
2022-11-16T05:57:18.204Z,20.60
2022-11-16T05:59:48.088Z,13.63
2022-11-16T06:02:16.355Z,16.17
2022-11-16T06:04:44.699Z,15.10
2022-11-16T06:07:13.144Z,13.20
2022-11-16T06:09:41.526Z,16.13
2022-11-16T06:12:10.070Z,14.17
2022-11-16T06:14:38.412Z,16.50
2022-11-16T06:17:08.193Z,14.90
2022-11-16T06:19:36.876Z,14.97
2022-11-16T06:22:05.255Z,15.70
2022-11-16T06:24:33.658Z,14.67
2022-11-16T06:27:01.978Z,11.13
2022-11-16T06:29:30.387Z,11.10
2022-11-16T06:31:58.689Z,14.63
2022-11-16T06:34:28.452Z,14.63
2022-11-16T06:36:59.832Z,14.40
2022-11-16T06:39:28.214Z,13.10
2022-11-16T06:41:56.588Z,12.67
2022-11-16T06:45:30.293Z,12.23
2022-11-16T06:47:58.697Z,12.90
2022-11-16T06:50:29.012Z,15.40
2022-11-16T06:53:00.942Z,14.03
2022-11-16T06:55:30.016Z,17.07
2022-11-16T06:57:58.545Z,14.00
2022-11-16T07:00:27.891Z,19.17
2022-11-16T07:02:56.430Z,15.37
2022-11-16T07:05:24.907Z,15.33
2022-11-16T07:07:56.792Z,14.73
2022-11-16T07:10:25.686Z,17.10
2022-11-16T07:12:54.225Z,16.10
2022-11-16T07:15:22.653Z,19.53
2022-11-16T07:17:51.034Z,18.43
2022-11-16T07:20:19.752Z,13.80
2022-11-16T07:22:48.269Z,16.33
2022-11-16T07:25:18.363Z,15.73
2022-11-16T07:27:46.722Z,15.73
2022-11-16T07:30:15.750Z,12.83
2022-11-16T07:32:44.144Z,17.40
2022-11-16T07:35:12.630Z,12.13
2022-11-16T07:37:41.038Z,13.23
2022-11-16T07:40:12.620Z,14.57
2022-11-16T07:42:43.744Z,11.37
2022-11-16T07:45:12.744Z,14.17
2022-11-16T07:47:41.174Z,8.10
2022-11-16T07:50:10.979Z,12.43
2022-11-16T07:52:39.520Z,12.57
2022-11-16T07:55:08.255Z,15.23
2022-11-16T07:57:36.570Z,13.53
2022-11-16T08:00:07.465Z,8.75
2022-11-16T08:02:35.917Z,15.27
2022-11-16T08:05:04.608Z,10.37
2022-11-16T08:07:35.504Z,15.70
2022-11-16T08:10:04.113Z,12.23
2022-11-16T08:12:32.560Z,19.33
2022-11-16T08:15:01.027Z,12.07
2022-11-16T08:17:33.094Z,12.93
2022-11-16T08:20:01.461Z,11.93
2022-11-16T08:22:30.387Z,12.97
2022-11-16T08:24:58.660Z,14.63
2022-11-16T08:27:27.015Z,11.97
2022-11-16T08:29:56.171Z,11.05
2022-11-16T08:32:24.567Z,7.83
2022-11-16T08:34:54.267Z,10.57
2022-11-16T08:37:22.910Z,10.95
2022-11-16T08:39:51.294Z,5.70
2022-11-16T08:42:19.609Z,13.40
2022-11-16T08:44:48.035Z,7.80
2022-11-16T08:47:16.724Z,11.05
2022-11-16T08:49:49.713Z,11.88
2022-11-16T08:52:19.726Z,9.43
2022-11-16T08:54:48.392Z,7.38
2022-11-16T08:57:16.828Z,4.22
2022-11-16T08:59:45.288Z,7.60
2022-11-16T09:02:13.803Z,10.53
2022-11-16T09:04:42.444Z,8.40
2022-11-16T09:07:11.682Z,3.03
2022-11-16T09:09:41.336Z,10.55
2022-11-16T09:12:09.777Z,5.28
2022-11-16T09:14:41.218Z,14.75
2022-11-16T09:17:09.482Z,6.05
2022-11-16T09:19:37.823Z,5.18
2022-11-16T09:22:06.469Z,8.60
2022-11-16T09:24:34.807Z,6.35
2022-11-16T09:27:04.529Z,8.10
2022-11-16T09:29:32.903Z,9.48
2022-11-16T09:32:02.277Z,5.03
2022-11-16T09:34:30.606Z,6.35
2022-11-16T09:37:02.351Z,4.50
2022-11-16T09:39:32.529Z,3.53
2022-11-16T09:42:20.786Z,6.40
2022-11-16T09:45:05.135Z,6.05
2022-11-16T09:47:43.306Z,3.25
2022-11-16T09:50:29.438Z,9.57
2022-11-16T09:53:03.639Z,7.13
2022-11-16T09:55:36.212Z,5.38
2022-11-16T09:58:13.222Z,1.55
2022-11-16T10:00:45.138Z,9.30
2022-11-16T10:03:15.239Z,1.88
2022-11-16T10:05:49.981Z,2.92
2022-11-16T10:08:24.026Z,9.23
2022-11-16T10:11:00.804Z,2.80
2022-11-16T10:13:46.523Z,6.97
2022-11-16T10:16:21.267Z,3.63
2022-11-16T10:18:56.867Z,9.32
2022-11-16T10:21:42.829Z,4.00
2022-11-16T10:24:42.866Z,6.13
2022-11-16T10:27:35.059Z,1.60
2022-11-16T10:30:16.967Z,6.22
2022-11-16T10:32:51.996Z,10.02
2022-11-16T10:35:26.959Z,8.88
2022-11-16T10:37:59.147Z,6.38
2022-11-16T10:40:30.442Z,4.95
2022-11-16T10:43:04.003Z,5.85
2022-11-16T10:45:46.225Z,8.18
2022-11-16T10:48:24.198Z,5.63
2022-11-16T10:50:53.982Z,3.78
2022-11-16T10:53:29.067Z,2.60
2022-11-16T10:56:18.676Z,1.65
2022-11-16T10:58:56.586Z,6.15
2022-11-16T11:01:53.041Z,5.38
2022-11-16T11:04:24.707Z,6.97
2022-11-16T11:06:54.904Z,7.25
2022-11-16T11:09:31.996Z,4.97
2022-11-16T11:12:20.657Z,8.05
2022-11-16T11:15:05.857Z,6.82
2022-11-16T11:17:37.195Z,4.28
2022-11-16T11:20:08.054Z,3.55
2022-11-16T11:22:44.245Z,4.70
2022-11-16T11:25:21.803Z,5.05
2022-11-16T11:27:51.645Z,8.02
2022-11-16T11:30:22.066Z,7.50
2022-11-16T11:32:52.949Z,3.95
2022-11-16T11:35:25.853Z,4.97
2022-11-16T11:37:58.999Z,5.40
2022-11-16T11:40:31.179Z,7.60
2022-11-16T11:43:01.573Z,12.65
2022-11-16T11:45:36.851Z,8.93
2022-11-16T11:48:20.694Z,6.00
2022-11-16T11:50:53.953Z,6.80
2022-11-16T11:53:40.139Z,5.70
2022-11-16T11:56:11.231Z,3.90
2022-11-16T11:58:41.498Z,1.70
2022-11-16T12:01:50.624Z,5.60
2022-11-16T12:04:58.091Z,4.47
2022-11-16T12:07:44.566Z,7.18
2022-11-16T12:10:22.840Z,7.50
2022-11-16T12:13:37.588Z,6.55
2022-11-16T12:16:18.082Z,8.48
2022-11-16T12:19:01.515Z,8.02
2022-11-16T12:21:41.307Z,4.47
2022-11-16T12:24:22.723Z,7.00
2022-11-16T12:27:02.325Z,6.82
2022-11-16T12:29:40.503Z,6.57
2022-11-16T12:32:32.767Z,7.45
2022-11-16T12:35:16.147Z,6.93
2022-11-16T12:37:51.488Z,6.80
2022-11-16T12:40:37.056Z,5.38
2022-11-16T12:43:13.784Z,4.72
2022-11-16T12:46:14.122Z,5.72
2022-11-16T12:49:22.600Z,4.95
2022-11-16T12:52:01.001Z,9.07
2022-11-16T12:55:25.349Z,7.38
2022-11-16T12:58:08.706Z,4.07
2022-11-16T13:00:50.465Z,4.55
2022-11-16T13:03:30.196Z,3.90
2022-11-16T13:06:03.249Z,4.22
2022-11-16T13:08:46.409Z,4.20
2022-11-16T13:11:21.699Z,8.85
2022-11-16T13:13:57.031Z,4.70
2022-11-16T13:16:26.315Z,5.43
2022-11-16T13:18:56.203Z,6.60
2022-11-16T13:21:37.506Z,5.80
2022-11-16T13:24:21.853Z,5.00
2022-11-16T13:26:58.380Z,8.57
2022-11-16T13:29:35.287Z,7.97
2022-11-16T13:32:10.342Z,5.82
2022-11-16T13:34:40.776Z,8.43
2022-11-16T13:37:42.440Z,4.43
2022-11-16T13:40:26.360Z,3.78
2022-11-16T13:43:08.191Z,5.68
2022-11-16T13:45:42.294Z,1.20
2022-11-16T13:48:20.502Z,3.40
2022-11-16T13:50:52.363Z,8.18
2022-11-16T13:54:25.183Z,7.10
2022-11-16T13:56:21.797Z,4.65
2022-11-16T13:58:55.665Z,6.03
2022-11-16T14:01:26.665Z,4.53
2022-11-16T14:04:33.749Z,5.65
2022-11-16T14:07:02.664Z,4.05
2022-11-16T14:09:51.916Z,3.67
2022-11-16T14:12:57.279Z,5.35
2022-11-16T14:15:31.881Z,6.40
2022-11-16T14:18:18.653Z,6.10
2022-11-16T14:20:58.151Z,5.75
2022-11-16T14:23:57.916Z,6.38
2022-11-16T14:26:36.232Z,9.15
2022-11-16T14:29:24.043Z,4.88
2022-11-16T14:31:54.975Z,3.33
2022-11-16T14:34:31.532Z,6.45
2022-11-16T14:37:01.512Z,9.23
2022-11-16T14:39:38.582Z,7.03
2022-11-16T14:42:17.586Z,5.00
2022-11-16T14:44:46.522Z,8.02
2022-11-16T14:47:24.566Z,7.78
2022-11-16T14:49:55.620Z,8.27
2022-11-16T14:52:33.850Z,8.25
2022-11-16T14:55:06.319Z,14.57
2022-11-16T14:57:34.710Z,8.90
2022-11-16T15:00:19.133Z,12.93
2022-11-16T15:02:51.682Z,6.93
2022-11-16T15:05:24.093Z,6.75
2022-11-16T15:07:54.412Z,6.10
2022-11-16T15:10:26.174Z,8.45
2022-11-16T15:12:56.152Z,6.20
2022-11-16T15:15:26.782Z,7.85
2022-11-16T15:18:08.163Z,4.75
2022-11-16T15:20:48.926Z,5.95
2022-11-16T15:23:17.327Z,1.48
2022-11-16T15:25:47.880Z,9.05
2022-11-16T15:28:19.088Z,3.92
2022-11-16T15:30:50.914Z,10.77
2022-11-16T15:33:23.059Z,6.13
2022-11-16T15:35:54.050Z,6.75
2022-11-16T15:38:24.983Z,5.43
2022-11-16T15:40:54.910Z,6.38
2022-11-16T15:43:26.258Z,3.53
2022-11-16T15:45:55.131Z,3.90
2022-11-16T15:48:26.184Z,2.55
2022-11-16T15:51:14.806Z,5.07
2022-11-16T15:53:44.853Z,4.43
2022-11-16T15:56:17.673Z,7.30
2022-11-16T15:58:46.804Z,6.43
2022-11-16T16:01:16.585Z,6.32
2022-11-16T16:03:55.200Z,6.90
2022-11-16T16:06:47.781Z,9.85
2022-11-16T16:09:25.141Z,4.70
2022-11-16T16:11:54.168Z,1.48
2022-11-16T16:14:25.332Z,6.00
2022-11-16T16:16:54.813Z,6.28
2022-11-16T16:19:35.687Z,4.07
2022-11-16T16:22:07.809Z,7.25
2022-11-16T16:24:44.111Z,5.72
2022-11-16T16:27:17.962Z,4.68
2022-11-16T16:29:47.652Z,4.40
2022-11-16T16:32:34.431Z,9.75
2022-11-16T16:35:07.609Z,7.15
2022-11-16T16:37:37.529Z,10.07
2022-11-16T16:40:10.246Z,4.00
2022-11-16T16:42:39.227Z,5.70
2022-11-16T16:45:15.688Z,3.10
2022-11-16T16:47:44.107Z,6.53
2022-11-16T16:50:12.906Z,5.32
2022-11-16T16:52:42.684Z,6.43
2022-11-16T16:55:11.113Z,9.30
2022-11-16T16:57:39.496Z,10.00
2022-11-16T17:00:10.533Z,18.10
2022-11-16T17:02:39.319Z,5.47
2022-11-16T17:05:09.932Z,2.88
2022-11-16T17:07:38.468Z,6.03
2022-11-16T17:10:10.297Z,6.78
2022-11-16T17:12:38.689Z,6.97
2022-11-16T17:15:15.076Z,4.57
2022-11-16T17:17:47.689Z,4.97
2022-11-16T17:20:19.373Z,6.78
2022-11-16T17:22:47.723Z,7.57
2022-11-16T17:25:17.631Z,6.75
2022-11-16T17:27:46.313Z,6.25
2022-11-16T17:30:15.738Z,5.35
2022-11-16T17:32:44.075Z,7.88
2022-11-16T17:35:12.467Z,6.05
2022-11-16T17:37:40.814Z,10.95
2022-11-16T17:40:11.534Z,6.30
2022-11-16T17:42:41.268Z,5.82
2022-11-16T17:45:11.978Z,4.55
2022-11-16T17:47:40.911Z,5.70
2022-11-16T17:50:11.156Z,5.05
2022-11-16T17:52:39.489Z,5.25
2022-11-16T17:55:09.182Z,7.05
2022-11-16T17:57:37.605Z,4.35
2022-11-16T18:00:09.516Z,6.82
2022-11-16T18:02:37.873Z,9.32
2022-11-16T18:05:06.910Z,4.43
2022-11-16T18:07:37.655Z,6.00
2022-11-16T18:10:07.039Z,7.72
2022-11-16T18:12:36.264Z,4.55
2022-11-16T18:15:27.460Z,6.50
2022-11-16T18:17:55.189Z,7.25
2022-11-16T18:20:27.691Z,12.82
2022-11-16T18:22:56.434Z,8.45
2022-11-16T18:25:27.127Z,2.90
2022-11-16T18:27:56.353Z,5.15
2022-11-16T18:30:25.257Z,7.47
2022-11-16T18:32:55.254Z,5.35
2022-11-16T18:35:23.627Z,3.42
2022-11-16T18:37:52.189Z,6.43
2022-11-16T18:40:20.735Z,6.68
2022-11-16T18:42:49.439Z,7.07
2022-11-16T18:45:21.172Z,10.65
2022-11-16T18:47:49.641Z,4.10
2022-11-16T18:50:26.486Z,8.75
2022-11-16T18:52:55.285Z,5.65
2022-11-16T18:55:23.712Z,6.10
2022-11-16T18:57:52.093Z,8.90
2022-11-16T19:00:23.239Z,8.82
2022-11-16T19:02:51.550Z,5.28
2022-11-16T19:05:24.269Z,9.57
2022-11-16T19:07:52.542Z,3.92
2022-11-16T19:10:20.951Z,10.73
2022-11-16T19:12:49.334Z,5.03
2022-11-16T19:15:17.855Z,11.60
2022-11-16T19:18:06.715Z,7.75
2022-11-16T19:20:38.193Z,4.95
2022-11-16T19:23:06.520Z,5.55
2022-11-16T19:25:35.253Z,10.50
2022-11-16T19:28:04.966Z,6.70
2022-11-16T19:30:35.583Z,7.88
2022-11-16T19:33:04.327Z,5.70
2022-11-16T19:35:32.715Z,5.07
2022-11-16T19:38:02.491Z,10.02
2022-11-16T19:40:30.887Z,5.47
2022-11-16T19:42:59.287Z,8.23
2022-11-16T19:45:27.594Z,8.30
2022-11-16T19:47:57.480Z,6.30
2022-11-16T19:50:25.910Z,7.43
2022-11-16T19:52:54.217Z,6.20
2022-11-16T19:55:24.083Z,9.13
2022-11-16T19:57:52.475Z,9.02
2022-11-16T20:00:23.315Z,7.85
2022-11-16T20:02:56.170Z,15.23
2022-11-16T20:05:24.835Z,12.52
2022-11-16T20:07:53.156Z,9.15
2022-11-16T20:10:23.946Z,6.03
2022-11-16T20:12:52.241Z,8.07
2022-11-16T20:15:20.515Z,4.88
2022-11-16T20:17:48.939Z,6.88
2022-11-16T20:20:17.321Z,6.32
2022-11-16T20:22:45.941Z,6.88
2022-11-16T20:25:15.029Z,7.55
2022-11-16T20:27:44.669Z,6.40
2022-11-16T20:30:13.740Z,10.88
2022-11-16T20:32:42.165Z,8.63
2022-11-16T20:35:13.685Z,6.22
2022-11-16T20:37:46.522Z,4.78
2022-11-16T20:40:15.905Z,4.70
2022-11-16T20:42:45.814Z,4.47
2022-11-16T20:45:14.156Z,7.35
2022-11-16T20:47:42.555Z,5.45
2022-11-16T20:50:12.043Z,3.08
2022-11-16T20:52:43.185Z,3.03
2022-11-16T20:55:13.635Z,4.15
2022-11-16T20:57:42.149Z,6.10
2022-11-16T21:00:13.647Z,9.25
2022-11-16T21:02:41.998Z,2.78
2022-11-16T21:05:11.403Z,6.93
2022-11-16T21:07:41.830Z,7.10
2022-11-16T21:10:20.858Z,6.40
2022-11-16T21:13:07.470Z,5.88
2022-11-16T21:15:37.161Z,3.47
2022-11-16T21:18:05.768Z,6.53
2022-11-16T21:20:34.078Z,1.65
2022-11-16T21:23:02.574Z,2.28
2022-11-16T21:25:30.928Z,2.92
2022-11-16T21:27:59.244Z,4.75
2022-11-16T21:30:27.679Z,6.47
2022-11-16T21:32:57.355Z,5.93
2022-11-16T21:35:27.097Z,3.85
2022-11-16T21:37:55.464Z,0.73
2022-11-16T21:40:23.713Z,2.88
2022-11-16T21:42:52.899Z,3.75
2022-11-16T21:45:21.188Z,2.30
2022-11-16T21:47:51.205Z,2.25
2022-11-16T21:50:36.292Z,3.13
2022-11-16T21:53:04.820Z,2.95
2022-11-16T21:55:33.678Z,3.72
2022-11-16T21:58:03.570Z,2.15
2022-11-16T22:00:31.967Z,1.15
2022-11-16T22:03:00.324Z,1.48
2022-11-16T22:05:49.607Z,5.53
2022-11-16T22:08:20.135Z,0.35
2022-11-16T22:10:51.788Z,1.50
2022-11-16T22:13:21.009Z,0.63
2022-11-16T22:15:49.265Z,2.35
2022-11-16T22:18:17.618Z,4.30
2022-11-16T22:20:50.636Z,5.38
2022-11-16T22:23:23.414Z,2.35
2022-11-16T22:26:04.058Z,0.93
2022-11-16T22:28:33.450Z,1.95
2022-11-16T22:31:02.661Z,5.13
2022-11-16T22:33:31.404Z,2.38
2022-11-16T22:36:01.442Z,3.15
2022-11-16T22:38:30.043Z,1.92
2022-11-16T22:40:59.122Z,3.70
2022-11-16T22:43:29.901Z,2.03
2022-11-16T22:45:59.864Z,4.13
2022-11-16T22:48:34.302Z,4.82
2022-11-16T22:51:09.152Z,6.88
2022-11-16T22:53:37.898Z,3.28
2022-11-16T22:56:08.138Z,1.80
2022-11-16T22:58:37.067Z,2.88
2022-11-16T23:01:07.391Z,1.58
2022-11-16T23:03:36.518Z,3.20
2022-11-16T23:06:07.479Z,0.65
2022-11-16T23:08:36.418Z,0.30
2022-11-16T23:11:24.408Z,1.15
2022-11-16T23:14:11.453Z,0.50
2022-11-16T23:16:40.505Z,2.45
2022-11-16T23:19:29.903Z,0.32
2022-11-16T23:22:17.454Z,1.25
2022-11-16T23:25:03.712Z,0.43
2022-11-16T23:27:41.049Z,1.05
2022-11-16T23:30:13.155Z,1.67
2022-11-16T23:32:42.059Z,1.08
2022-11-16T23:35:11.052Z,1.63
2022-11-16T23:37:56.239Z,1.38
2022-11-16T23:40:26.212Z,0.20
2022-11-16T23:43:13.017Z,1.10
2022-11-16T23:45:41.769Z,0.60
2022-11-16T23:48:11.551Z,0.88
2022-11-16T23:50:39.930Z,0.77
2022-11-16T23:53:11.054Z,1.65
2022-11-16T23:55:42.115Z,1.77
2022-11-16T23:58:12.806Z,0.65
